Portada
METAR-TAF:

METAR-TAF

Aeroports :

Florianópolis, Santa Catarina, Brasil

latitud: 27-40S, longitud: 048-33W, altitud: 5 m

Observació

L'informe es va fer fa 44 minuts, a les 22:00 UTC
Vent 4 kt del Est
Temperatura 22°C
Humitat 69%
Pressió 1011 hPa
Visibilitat 10 km o més
Escasses núvols a una alçada de 4000 ft

METAR: SBFL 062200Z 09004KT 9999 FEW040 22/16 Q1011

Hora: 19:44 (22:44 UTC)

Pronòstic

L'informe es va fer fa 7 hores i 14 minuts, a les 15:30 UTC
Pronòstic vàlid del 06 a les 18 UTC al 07 a les 18 UTC
Vent 8 kt del Est
Visibilitat 10 km o més
Núvols disperses a una alçada de 3000 ft
Evolucionant progressivament
l' 06 a les 22 UTC al 06 a les 24 UTC
Vent 6 kt del Nord/Nord-Oest
Evolucionant progressivament
l' 07 a les 12 UTC al 07 a les 14 UTC
Vent 7 kt del Sud

TAF: SBFL 061530Z 0618/0718 10008KT 9999 SCT030 TN18/0708Z TX27/0718Z BECMG 0622/0624 34006KT BECMG 0712/0714 18007KT RMK PER

Observacions i pronòstics meteorològics de més de 4000 aeroports (METAR i TAF).

Les estacions disponibles són els punts grocs i vermells al mapa.

Posi el ratolí al punt desitjat per veure el nom de l'estació.

Feu clic per veure les observacions i els pronòstics meteorològics.

Per canviar el mapa: feu clic els botons verds amb una creu de color negre per apropar; al botó verd amb un guió per allunyar la imatge; o en les fletxes verdes per a mapes adjacents.


METAR-TAF: